Time;durP1;ratioP1;P1;durP2;ratioP2;P2;SDS_P1;SDS_P2;PMS_P1;PMS_P2;Temp;Humidity;BMP_temperature;BMP_pressure;BME280_temperature;BME280_humidity;BME280_pressure;Samples;Min_cycle;Max_cycle;Signal;HPM_P1;HPM_P2
2022/09/10 00:01:24;;;;;;;3.60;2.00;;;14.90;99.90;;;;;;5044097;28;20099;-70
2022/09/10 00:03:53;;;;;;;3.90;2.15;;;14.90;99.90;;;;;;5038712;28;20498;-71
2022/09/10 00:06:24;;;;;;;4.53;1.95;;;14.80;99.90;;;;;;5020730;28;20054;-70
2022/09/10 00:08:56;;;;;;;5.10;1.98;;;14.80;99.90;;;;;;5022134;28;20055;-69
2022/09/10 00:11:25;;;;;;;3.90;1.98;;;14.80;99.90;;;;;;5044628;28;20044;-72
2022/09/10 00:13:52;;;;;;;3.83;2.13;;;14.80;99.90;;;;;;5049473;28;20056;-70
2022/09/10 00:16:20;;;;;;;7.72;2.05;;;14.80;99.90;;;;;;5049803;28;20110;-71
2022/09/10 00:18:49;;;;;;;5.72;2.03;;;14.90;99.90;;;;;;5043807;28;20538;-70
2022/09/10 00:21:19;;;;;;;4.38;2.30;;;14.90;99.90;;;;;;5049879;28;20613;-70
2022/09/10 00:23:47;;;;;;;4.43;2.10;;;15.00;99.90;;;;;;5037788;28;20462;-69
2022/09/10 00:26:20;;;;;;;4.18;2.47;;;15.00;99.90;;;;;;5039318;28;20045;-69
2022/09/10 00:28:49;;;;;;;4.50;2.05;;;15.00;99.90;;;;;;5045828;28;20047;-70
2022/09/10 00:31:18;;;;;;;6.45;2.30;;;15.00;99.90;;;;;;5046383;28;20068;-70
2022/09/10 00:33:45;;;;;;;6.90;2.72;;;15.00;99.90;;;;;;5032122;28;20140;-69
2022/09/10 00:36:14;;;;;;;5.95;2.65;;;15.00;99.90;;;;;;5029378;28;20051;-69
2022/09/10 00:38:42;;;;;;;5.07;2.40;;;15.10;99.90;;;;;;5028514;28;20486;-69
2022/09/10 00:41:10;;;;;;;7.22;2.42;;;15.00;99.90;;;;;;5029776;28;20484;-69
2022/09/10 00:43:55;;;;;;;5.53;2.20;;;15.00;99.90;;;;;;5031388;28;20552;-71
2022/09/10 00:46:42;;;;;;;5.70;2.40;;;15.10;99.90;;;;;;5026076;28;20041;-70
2022/09/10 00:49:19;;;;;;;7.10;2.67;;;15.10;99.90;;;;;;5029423;28;20050;-70
2022/09/10 00:51:48;;;;;;;6.72;2.47;;;15.00;99.90;;;;;;5027762;28;20132;-71
2022/09/10 00:54:18;;;;;;;4.93;2.67;;;15.00;99.90;;;;;;5011951;28;20049;-70
2022/09/10 00:56:46;;;;;;;6.40;2.30;;;15.10;99.90;;;;;;5027395;28;20522;-71
2022/09/10 00:59:16;;;;;;;6.30;2.65;;;15.00;99.90;;;;;;5040134;28;20044;-70
2022/09/10 01:01:44;;;;;;;7.97;2.72;;;15.10;99.90;;;;;;5047113;28;20049;-70
2022/09/10 01:04:13;;;;;;;6.05;2.38;;;15.10;99.90;;;;;;5047585;28;20051;-70
2022/09/10 01:06:42;;;;;;;6.78;2.50;;;15.10;99.90;;;;;;5010947;28;20049;-70
2022/09/10 01:09:10;;;;;;;4.22;2.17;;;15.00;99.90;;;;;;5047524;28;20122;-70
2022/09/10 01:11:37;;;;;;;4.30;2.25;;;14.90;99.90;;;;;;5048046;28;20045;-70
2022/09/10 01:14:16;;;;;;;7.32;2.63;;;14.90;99.90;;;;;;5047605;28;20067;-71
2022/09/10 01:17:13;;;;;;;5.20;2.30;;;14.90;99.90;;;;;;5046732;28;20041;-70
2022/09/10 01:20:03;;;;;;;6.53;2.70;;;14.90;99.90;;;;;;5037062;28;20538;-70
2022/09/10 01:22:46;;;;;;;5.55;2.22;;;14.90;99.90;;;;;;5021926;28;20044;-70
2022/09/10 01:25:34;;;;;;;7.15;2.55;;;14.90;99.90;;;;;;5037252;28;20044;-70
2022/09/10 01:28:07;;;;;;;8.18;2.33;;;14.90;99.90;;;;;;5044838;28;20570;-70
2022/09/10 01:30:42;;;;;;;3.75;2.30;;;14.80;99.90;;;;;;5030106;28;20527;-70
2022/09/10 01:33:36;;;;;;;8.52;2.58;;;14.80;99.90;;;;;;5014119;28;20101;-70
2022/09/10 01:36:11;;;;;;;6.00;2.83;;;14.80;99.90;;;;;;5010115;28;20472;-70
2022/09/10 01:38:42;;;;;;;7.00;2.92;;;14.80;99.90;;;;;;5027395;28;20049;-70
2022/09/10 01:41:12;;;;;;;6.78;2.50;;;14.80;99.90;;;;;;5030715;28;20048;-70
2022/09/10 01:43:41;;;;;;;4.47;2.57;;;14.80;99.90;;;;;;5037925;28;20068;-70
2022/09/10 01:46:36;;;;;;;3.58;1.95;;;14.80;99.90;;;;;;5043374;28;20495;-70
2022/09/10 01:49:35;;;;;;;3.67;2.22;;;14.80;99.90;;;;;;5019613;28;20534;-70
2022/09/10 01:52:17;;;;;;;3.15;1.88;;;14.80;99.90;;;;;;5035087;28;20126;-70
2022/09/10 01:55:02;;;;;;;4.07;2.20;;;14.80;99.90;;;;;;5032699;28;20057;-70
2022/09/10 01:57:54;;;;;;;3.92;2.38;;;14.80;99.90;;;;;;5036824;28;20053;-71
2022/09/10 02:00:34;;;;;;;4.40;2.40;;;14.80;99.90;;;;;;5006606;28;20045;-68
2022/09/10 02:03:10;;;;;;;6.60;2.47;;;14.80;99.90;;;;;;5045936;28;20049;-70
2022/09/10 02:05:41;;;;;;;5.57;2.50;;;14.80;99.90;;;;;;5034635;28;20080;-70
2022/09/10 02:08:32;;;;;;;4.63;2.28;;;14.80;99.90;;;;;;5015771;28;20506;-69
2022/09/10 02:11:05;;;;;;;5.30;2.45;;;14.70;99.90;;;;;;5029388;28;20172;-69
2022/09/10 02:13:36;;;;;;;3.22;2.33;;;14.70;99.90;;;;;;5032688;28;20071;-70
2022/09/10 02:16:24;;;;;;;5.05;2.22;;;14.70;99.90;;;;;;5017184;28;20041;-70
2022/09/10 02:18:51;;;;;;;5.18;2.40;;;14.70;99.90;;;;;;5039240;28;20475;-69
2022/09/10 02:21:19;;;;;;;6.38;2.58;;;14.70;99.90;;;;;;5040994;28;20051;-70
2022/09/10 02:23:56;;;;;;;6.32;2.55;;;14.60;99.90;;;;;;5024266;28;20124;-70
2022/09/10 02:26:24;;;;;;;6.85;2.58;;;14.60;99.90;;;;;;5019775;28;20042;-70
2022/09/10 02:28:53;;;;;;;4.75;2.40;;;14.60;99.90;;;;;;5012559;28;20134;-70
2022/09/10 02:31:21;;;;;;;4.72;2.35;;;14.60;99.90;;;;;;5009850;28;20071;-70
2022/09/10 02:33:50;;;;;;;3.65;2.20;;;14.60;99.90;;;;;;5014243;28;20078;-69
2022/09/10 02:36:17;;;;;;;5.63;2.13;;;14.60;99.90;;;;;;5039008;28;20039;-70
2022/09/10 02:38:45;;;;;;;3.17;2.00;;;14.60;99.90;;;;;;5024901;28;20525;-70
2022/09/10 02:41:14;;;;;;;3.78;1.90;;;14.60;99.90;;;;;;5024902;28;20034;-70
2022/09/10 02:43:41;;;;;;;4.18;2.05;;;14.50;99.90;;;;;;5043967;28;20569;-70
2022/09/10 02:46:09;;;;;;;5.78;2.40;;;14.60;99.90;;;;;;5041619;28;20040;-70
2022/09/10 02:48:38;;;;;;;4.38;1.98;;;14.60;99.90;;;;;;5045801;28;20549;-70
2022/09/10 02:51:07;;;;;;;4.95;1.92;;;14.60;99.90;;;;;;5049686;28;20041;-69
2022/09/10 02:53:36;;;;;;;3.33;1.85;;;14.60;99.90;;;;;;5048831;28;20442;-70
2022/09/10 02:56:06;;;;;;;2.55;1.70;;;14.50;99.90;;;;;;5031108;28;20527;-70
2022/09/10 02:58:35;;;;;;;4.78;1.67;;;14.50;99.90;;;;;;5043690;28;20518;-70
2022/09/10 03:01:07;;;;;;;4.03;1.92;;;14.50;99.90;;;;;;5041369;28;20399;-69
2022/09/10 03:03:36;;;;;;;3.92;2.03;;;14.50;99.90;;;;;;5026878;28;20050;-70
2022/09/10 03:06:03;;;;;;;4.60;2.15;;;14.50;99.90;;;;;;5018946;28;20041;-69
2022/09/10 03:08:31;;;;;;;5.22;1.77;;;14.50;99.90;;;;;;5018475;28;20665;-70
2022/09/10 03:10:58;;;;;;;5.80;1.70;;;14.50;99.90;;;;;;5030322;28;20087;-69
2022/09/10 03:13:27;;;;;;;3.80;1.80;;;14.50;99.90;;;;;;5029785;28;20041;-70
2022/09/10 03:15:57;;;;;;;3.30;1.65;;;14.50;99.90;;;;;;5038649;28;20064;-69
2022/09/10 03:18:26;;;;;;;4.95;2.08;;;14.50;99.90;;;;;;5037723;28;20045;-70
2022/09/10 03:20:53;;;;;;;3.70;1.98;;;14.50;99.90;;;;;;5041055;28;20045;-69
2022/09/10 03:23:21;;;;;;;3.65;1.45;;;14.50;99.90;;;;;;5007513;28;20053;-72
2022/09/10 03:25:49;;;;;;;4.10;1.83;;;14.50;99.90;;;;;;5039911;28;20053;-69
2022/09/10 03:28:23;;;;;;;3.90;1.70;;;14.50;99.90;;;;;;5011703;28;20050;-69
2022/09/10 03:30:51;;;;;;;4.85;1.60;;;14.50;99.90;;;;;;5039922;28;20472;-69
2022/09/10 03:33:20;;;;;;;3.08;1.60;;;14.50;99.90;;;;;;5041092;28;20496;-69
2022/09/10 03:35:47;;;;;;;4.22;1.58;;;14.50;99.90;;;;;;5037101;28;20109;-70
2022/09/10 03:38:14;;;;;;;2.60;1.55;;;14.50;99.90;;;;;;5033239;28;20041;-69
2022/09/10 03:40:42;;;;;;;4.00;1.73;;;14.50;99.90;;;;;;5028185;28;20041;-70
2022/09/10 03:43:09;;;;;;;3.10;1.60;;;14.50;99.90;;;;;;5017101;28;20577;-69
2022/09/10 03:45:37;;;;;;;4.30;1.55;;;14.50;99.90;;;;;;5025109;28;20107;-69
2022/09/10 03:48:05;;;;;;;3.28;1.63;;;14.50;99.90;;;;;;5032972;28;20112;-69
2022/09/10 03:50:32;;;;;;;2.92;1.50;;;14.50;99.90;;;;;;5039745;28;20044;-70
2022/09/10 03:53:02;;;;;;;2.80;1.50;;;14.50;99.90;;;;;;5033007;28;20515;-69
2022/09/10 03:55:30;;;;;;;3.75;1.50;;;14.50;99.90;;;;;;5040761;28;20045;-69
2022/09/10 03:57:58;;;;;;;4.38;1.50;;;14.50;99.90;;;;;;5039410;28;20500;-69
2022/09/10 04:00:25;;;;;;;5.10;2.00;;;14.50;99.90;;;;;;5027307;28;20049;-69
2022/09/10 04:02:53;;;;;;;4.93;1.73;;;14.50;99.90;;;;;;5027369;28;20056;-69
2022/09/10 04:05:21;;;;;;;2.67;1.60;;;14.40;99.90;;;;;;5019314;28;20499;-69
2022/09/10 04:07:48;;;;;;;4.65;1.73;;;14.30;99.90;;;;;;5025321;28;20046;-69
2022/09/10 04:10:17;;;;;;;3.88;1.55;;;14.30;99.90;;;;;;5025595;28;20049;-69
2022/09/10 04:12:45;;;;;;;2.75;1.50;;;14.30;99.90;;;;;;5027830;28;20048;-69
2022/09/10 04:15:12;;;;;;;6.15;1.63;;;14.30;99.90;;;;;;5028887;28;20045;-69
2022/09/10 04:17:40;;;;;;;3.22;1.50;;;14.20;99.90;;;;;;5030631;28;20516;-69
2022/09/10 04:20:08;;;;;;;4.25;1.50;;;14.20;99.90;;;;;;5032969;28;20041;-69
2022/09/10 04:22:36;;;;;;;3.25;1.55;;;14.30;99.90;;;;;;5012380;28;20118;-69
2022/09/10 04:25:04;;;;;;;3.35;1.70;;;14.30;99.90;;;;;;5020523;28;20420;-69
2022/09/10 04:27:32;;;;;;;2.92;1.60;;;14.40;99.90;;;;;;5025320;28;20476;-69
2022/09/10 04:29:59;;;;;;;2.83;1.50;;;14.40;99.90;;;;;;5016297;28;20065;-69
2022/09/10 04:32:26;;;;;;;2.88;1.60;;;14.40;99.90;;;;;;5024905;28;20149;-70
2022/09/10 04:34:54;;;;;;;7.38;1.80;;;14.50;99.90;;;;;;5031616;28;20380;-70
2022/09/10 04:37:21;;;;;;;2.67;1.38;;;14.60;99.90;;;;;;5024489;28;20416;-69
2022/09/10 04:39:49;;;;;;;3.63;1.77;;;14.50;99.90;;;;;;5034751;28;20537;-69
2022/09/10 04:42:19;;;;;;;4.80;1.85;;;14.40;99.90;;;;;;5021962;28;20128;-69
2022/09/10 04:44:48;;;;;;;4.40;1.55;;;14.40;99.90;;;;;;5017225;28;20056;-69
2022/09/10 04:47:16;;;;;;;5.00;1.52;;;14.40;99.90;;;;;;5033841;28;20542;-69
2022/09/10 04:49:43;;;;;;;3.53;1.52;;;14.40;99.90;;;;;;5035668;28;20073;-70
2022/09/10 04:52:12;;;;;;;2.58;1.40;;;14.40;99.90;;;;;;5031072;28;20041;-69
2022/09/10 04:54:39;;;;;;;3.35;1.65;;;14.40;99.90;;;;;;5030683;28;20049;-69
2022/09/10 04:57:06;;;;;;;2.95;1.60;;;14.40;99.90;;;;;;5034502;28;20045;-69
2022/09/10 04:59:34;;;;;;;4.00;1.75;;;14.30;99.90;;;;;;5028359;28;20111;-69
2022/09/10 05:02:02;;;;;;;3.53;1.50;;;14.30;99.90;;;;;;5025008;28;20041;-69
2022/09/10 05:04:29;;;;;;;3.05;1.42;;;14.20;99.90;;;;;;5020506;28;20042;-70
2022/09/10 05:06:58;;;;;;;3.38;1.55;;;14.20;99.90;;;;;;5015406;28;20049;-68
2022/09/10 05:09:29;;;;;;;3.65;1.65;;;14.20;99.90;;;;;;5035779;28;20111;-69
2022/09/10 05:12:00;;;;;;;5.18;1.75;;;14.20;99.90;;;;;;5020561;28;20046;-69
2022/09/10 05:14:32;;;;;;;2.88;1.70;;;14.20;99.90;;;;;;5030565;28;20060;-70
2022/09/10 05:16:59;;;;;;;3.17;2.05;;;14.20;99.90;;;;;;5020844;28;20041;-70
2022/09/10 05:19:28;;;;;;;4.80;1.52;;;14.20;99.90;;;;;;5031557;28;20033;-70
2022/09/10 05:22:02;;;;;;;8.05;1.75;;;14.20;99.90;;;;;;5034512;28;20043;-69
2022/09/10 05:24:33;;;;;;;3.05;1.60;;;14.20;99.90;;;;;;5022057;28;20496;-71
2022/09/10 05:27:03;;;;;;;3.15;1.45;;;14.30;99.90;;;;;;5024173;28;20033;-69
2022/09/10 05:29:38;;;;;;;5.05;1.85;;;14.30;99.90;;;;;;5035014;28;20041;-69
2022/09/10 05:32:08;;;;;;;4.90;1.55;;;14.40;99.90;;;;;;5029506;28;20041;-69
2022/09/10 05:34:35;;;;;;;5.53;1.73;;;14.40;99.90;;;;;;5007449;28;20537;-70
2022/09/10 05:37:04;;;;;;;4.13;1.58;;;14.40;99.90;;;;;;5011342;28;20060;-69
2022/09/10 05:39:32;;;;;;;2.53;1.58;;;14.40;99.90;;;;;;5024547;28;20052;-69
2022/09/10 05:42:01;;;;;;;3.67;1.60;;;14.40;99.90;;;;;;5028877;28;20064;-70
2022/09/10 05:44:28;;;;;;;3.15;1.42;;;14.50;99.90;;;;;;5007819;28;20076;-70
2022/09/10 05:46:55;;;;;;;3.33;1.40;;;14.40;99.90;;;;;;5004259;28;20041;-69
2022/09/10 05:49:23;;;;;;;3.45;1.67;;;14.50;99.90;;;;;;5022393;28;20037;-70
2022/09/10 05:51:50;;;;;;;6.80;1.60;;;14.50;99.90;;;;;;5016953;28;20431;-70
2022/09/10 05:54:18;;;;;;;4.38;1.63;;;14.50;99.90;;;;;;5016869;28;20562;-70
2022/09/10 05:56:45;;;;;;;2.92;1.50;;;14.50;99.90;;;;;;5026174;28;20041;-69
2022/09/10 05:59:12;;;;;;;3.90;1.65;;;14.60;99.90;;;;;;5028314;28;20057;-69
2022/09/10 06:01:45;;;;;;;4.38;1.63;;;14.60;99.90;;;;;;5020518;28;20052;-69
2022/09/10 06:04:12;;;;;;;8.02;1.88;;;14.60;99.90;;;;;;5007398;28;20460;-70
2022/09/10 06:06:39;;;;;;;2.90;1.30;;;14.70;99.90;;;;;;5026427;28;20041;-70
2022/09/10 06:09:10;;;;;;;3.83;1.52;;;14.70;99.90;;;;;;5019927;28;20045;-69
2022/09/10 06:12:00;;;;;;;3.20;1.60;;;14.70;99.90;;;;;;5018990;28;20072;-69
2022/09/10 06:14:29;;;;;;;4.15;1.70;;;14.70;99.90;;;;;;5012948;28;20100;-71
2022/09/10 06:16:57;;;;;;;3.35;1.40;;;14.80;99.90;;;;;;5033099;28;20056;-70
2022/09/10 06:19:28;;;;;;;4.53;1.70;;;14.90;99.90;;;;;;5011885;28;20050;-69
2022/09/10 06:21:56;;;;;;;3.08;1.45;;;14.90;99.90;;;;;;5028507;28;20049;-69
2022/09/10 06:24:24;;;;;;;2.65;1.35;;;14.90;99.90;;;;;;5028227;28;20087;-71
2022/09/10 06:26:56;;;;;;;4.05;1.40;;;14.90;99.90;;;;;;5047972;28;20111;-71
2022/09/10 06:29:24;;;;;;;3.38;1.58;;;14.90;99.90;;;;;;5030490;28;20068;-70
2022/09/10 06:31:52;;;;;;;2.40;1.40;;;15.00;99.90;;;;;;5045801;28;20090;-70
2022/09/10 06:34:19;;;;;;;4.13;1.60;;;15.00;99.90;;;;;;5036756;28;20045;-71
2022/09/10 06:36:48;;;;;;;3.17;1.35;;;15.00;99.90;;;;;;5039017;28;20695;-71
2022/09/10 06:39:17;;;;;;;3.83;1.50;;;14.90;99.90;;;;;;5027895;28;20091;-70
2022/09/10 06:41:49;;;;;;;3.97;2.10;;;15.00;99.90;;;;;;5015589;28;20073;-71
2022/09/10 06:44:36;;;;;;;3.03;1.40;;;15.00;99.90;;;;;;5032763;28;20653;-71
2022/09/10 06:47:13;;;;;;;2.53;1.30;;;15.10;99.90;;;;;;5032874;28;20041;-70
2022/09/10 06:50:01;;;;;;;2.78;1.30;;;15.20;99.90;;;;;;5034306;28;20072;-70
2022/09/10 06:52:30;;;;;;;3.78;1.40;;;15.20;99.90;;;;;;5018114;28;20120;-71
2022/09/10 06:55:03;;;;;;;3.35;1.42;;;15.40;99.90;;;;;;5018867;28;20049;-71
2022/09/10 06:57:36;;;;;;;2.10;1.40;;;15.50;99.90;;;;;;5033298;28;20042;-70
2022/09/10 07:00:04;;;;;;;4.15;1.58;;;15.60;99.90;;;;;;5020473;28;20438;-70
2022/09/10 07:02:32;;;;;;;6.53;1.98;;;15.50;99.90;;;;;;5027675;28;20034;-70
2022/09/10 07:04:59;;;;;;;2.08;1.38;;;15.50;99.90;;;;;;5027773;28;20504;-71
2022/09/10 07:07:29;;;;;;;4.32;2.25;;;15.60;99.90;;;;;;5012718;28;20542;-69
2022/09/10 07:09:57;;;;;;;4.95;1.63;;;15.70;99.90;;;;;;5018646;28;20110;-70
2022/09/10 07:12:26;;;;;;;3.17;1.67;;;15.80;99.90;;;;;;5018926;28;20046;-71
2022/09/10 07:14:54;;;;;;;3.65;1.48;;;15.70;99.90;;;;;;5019838;28;20120;-70
2022/09/10 07:17:22;;;;;;;3.33;1.50;;;15.70;99.90;;;;;;5010178;28;20540;-71
2022/09/10 07:19:50;;;;;;;3.00;1.50;;;15.70;99.90;;;;;;4999360;28;20045;-71
2022/09/10 07:22:23;;;;;;;4.10;1.60;;;15.70;99.90;;;;;;5030747;28;20504;-73
2022/09/10 07:24:52;;;;;;;8.32;1.60;;;15.80;99.90;;;;;;5045604;28;20033;-71
2022/09/10 07:27:28;;;;;;;2.88;1.67;;;15.60;99.90;;;;;;5042678;28;20045;-71
2022/09/10 07:29:57;;;;;;;3.67;1.63;;;15.80;99.90;;;;;;5009228;28;20063;-72
2022/09/10 07:32:24;;;;;;;2.40;1.48;;;15.90;99.90;;;;;;5046776;28;20392;-71
2022/09/10 07:35:00;;;;;;;3.95;1.50;;;16.00;99.90;;;;;;5034261;28;20049;-71
2022/09/10 07:37:29;;;;;;;2.65;1.35;;;16.10;99.90;;;;;;5023671;28;20049;-72
2022/09/10 07:39:56;;;;;;;2.10;1.50;;;16.20;99.90;;;;;;5029418;28;20405;-70
2022/09/10 07:42:25;;;;;;;4.90;1.77;;;16.00;99.90;;;;;;5017774;28;20487;-71
2022/09/10 07:44:52;;;;;;;3.38;1.50;;;16.00;99.90;;;;;;5018154;28;20042;-70
2022/09/10 07:47:20;;;;;;;2.63;1.50;;;16.10;99.90;;;;;;4997858;28;20542;-69
2022/09/10 07:49:48;;;;;;;1.92;1.42;;;16.10;99.90;;;;;;5040304;28;20040;-70
2022/09/10 07:52:17;;;;;;;3.20;1.80;;;16.30;99.90;;;;;;5027669;28;20087;-71
2022/09/10 07:54:49;;;;;;;4.25;1.70;;;16.60;99.90;;;;;;5037301;28;20103;-72
2022/09/10 07:57:16;;;;;;;5.47;1.80;;;16.70;99.90;;;;;;5023752;28;20056;-70
2022/09/10 07:59:43;;;;;;;3.10;1.80;;;16.80;99.90;;;;;;5039559;28;20413;-72
2022/09/10 08:02:14;;;;;;;2.17;1.55;;;16.90;99.90;;;;;;5036575;28;20041;-71
2022/09/10 08:04:48;;;;;;;3.88;1.70;;;17.00;99.90;;;;;;5021286;28;20115;-71
2022/09/10 08:07:16;;;;;;;1.90;1.35;;;16.90;99.90;;;;;;5016582;28;20042;-72
2022/09/10 08:09:44;;;;;;;3.63;1.80;;;16.80;99.90;;;;;;5017120;28;20042;-72
2022/09/10 08:12:16;;;;;;;4.93;1.80;;;16.90;99.90;;;;;;5024572;28;20063;-71
2022/09/10 08:14:44;;;;;;;4.50;1.98;;;16.60;99.90;;;;;;5019366;28;20042;-74
2022/09/10 08:17:12;;;;;;;3.33;1.70;;;16.60;99.90;;;;;;4998213;28;20516;-71
2022/09/10 08:19:42;;;;;;;3.60;1.80;;;16.60;99.90;;;;;;5003557;28;20054;-70
2022/09/10 08:22:10;;;;;;;4.70;1.65;;;16.60;99.90;;;;;;5031493;28;20579;-71
2022/09/10 08:24:46;;;;;;;2.88;1.40;;;16.50;99.90;;;;;;5026839;28;20128;-70
2022/09/10 08:27:15;;;;;;;4.97;1.58;;;16.40;99.90;;;;;;5028475;28;20041;-71
2022/09/10 08:29:44;;;;;;;6.25;2.97;;;16.30;99.90;;;;;;5028574;28;20547;-70
2022/09/10 08:32:11;;;;;;;4.47;1.55;;;16.20;99.90;;;;;;5012338;28;20045;-70
2022/09/10 08:34:40;;;;;;;2.25;1.60;;;16.30;99.90;;;;;;5007762;28;20079;-70
2022/09/10 08:37:09;;;;;;;2.25;1.33;;;16.30;99.90;;;;;;5019782;28;20404;-70
2022/09/10 08:39:37;;;;;;;4.40;1.90;;;16.40;99.90;;;;;;5011980;28;20132;-71
2022/09/10 08:42:29;;;;;;;3.53;1.42;;;16.60;99.90;;;;;;5028756;28;20046;-70
2022/09/10 08:45:03;;;;;;;2.40;1.52;;;16.50;99.90;;;;;;5005455;28;20131;-70
2022/09/10 08:47:52;;;;;;;5.05;1.60;;;16.40;99.90;;;;;;5021195;28;20041;-70
2022/09/10 08:50:45;;;;;;;3.47;1.45;;;16.40;99.90;;;;;;5018583;28;21628;-70
2022/09/10 08:53:42;;;;;;;3.28;1.67;;;16.30;99.90;;;;;;5003129;28;20048;-70
2022/09/10 08:56:15;;;;;;;3.15;1.63;;;16.30;99.90;;;;;;5016422;28;20045;-72
2022/09/10 08:59:01;;;;;;;3.55;1.60;;;16.50;99.90;;;;;;5021747;28;20503;-70
2022/09/10 09:01:42;;;;;;;2.83;1.40;;;16.50;99.90;;;;;;5019537;28;20049;-69
2022/09/10 09:04:35;;;;;;;2.42;1.50;;;16.50;99.90;;;;;;5015977;28;20046;-70
2022/09/10 09:07:11;;;;;;;2.15;1.63;;;16.60;99.90;;;;;;5022582;28;20405;-70
2022/09/10 09:09:41;;;;;;;2.75;1.55;;;16.70;99.90;;;;;;4991946;28;20045;-71
2022/09/10 09:12:14;;;;;;;3.55;1.60;;;16.50;99.90;;;;;;4996603;28;20050;-71
2022/09/10 09:15:16;;;;;;;3.92;1.67;;;16.60;99.90;;;;;;5014263;28;20806;-71
2022/09/10 09:17:57;;;;;;;3.83;1.63;;;16.60;99.90;;;;;;5021847;28;20066;-71
2022/09/10 09:20:47;;;;;;;2.60;1.60;;;16.40;99.90;;;;;;5037663;28;20062;-71
2022/09/10 09:23:18;;;;;;;2.97;1.50;;;16.40;99.90;;;;;;5020792;28;20418;-70
2022/09/10 09:25:50;;;;;;;2.20;1.60;;;16.40;99.90;;;;;;5028826;28;20041;-70
2022/09/10 09:28:46;;;;;;;3.88;1.70;;;16.50;99.90;;;;;;5028082;28;20403;-69
2022/09/10 09:31:41;;;;;;;3.65;1.50;;;16.60;99.90;;;;;;5027434;28;20430;-71
2022/09/10 09:34:36;;;;;;;2.58;1.60;;;16.90;99.90;;;;;;5025933;28;20054;-73
2022/09/10 09:37:17;;;;;;;3.17;1.40;;;17.10;99.90;;;;;;4994187;28;20524;-72
2022/09/10 09:40:15;;;;;;;2.97;1.80;;;17.30;99.90;;;;;;5010764;28;20388;-76
2022/09/10 09:42:55;;;;;;;4.32;2.08;;;17.50;99.90;;;;;;5020233;28;20053;-72
2022/09/10 09:45:33;;;;;;;2.90;1.70;;;17.60;99.90;;;;;;5010795;28;20120;-71
2022/09/10 09:48:02;;;;;;;3.38;2.00;;;17.50;99.90;;;;;;5036471;28;20045;-71
2022/09/10 09:50:33;;;;;;;2.97;1.85;;;17.50;99.90;;;;;;5017176;28;20036;-71
2022/09/10 09:53:01;;;;;;;3.38;1.90;;;17.70;99.90;;;;;;5019081;28;20060;-72
2022/09/10 09:55:40;;;;;;;3.47;1.90;;;17.80;99.90;;;;;;5028428;28;20446;-70
2022/09/10 09:58:19;;;;;;;6.18;2.03;;;17.60;99.90;;;;;;5029937;28;20041;-71
2022/09/10 10:01:02;;;;;;;3.80;2.00;;;17.90;99.90;;;;;;5015617;28;20468;-71
2022/09/10 10:03:51;;;;;;;6.50;2.35;;;17.90;99.90;;;;;;5017884;28;20657;-73
2022/09/10 10:06:45;;;;;;;4.18;1.80;;;17.80;99.90;;;;;;5010784;28;20467;-72
2022/09/10 10:09:28;;;;;;;4.25;1.95;;;17.50;99.90;;;;;;5026064;28;20396;-74
2022/09/10 10:12:03;;;;;;;4.50;2.00;;;17.40;99.90;;;;;;5035312;28;20041;-72
2022/09/10 10:14:30;;;;;;;4.07;2.00;;;17.20;99.90;;;;;;5035866;28;20037;-71
2022/09/10 10:16:59;;;;;;;4.57;1.90;;;17.00;99.90;;;;;;5022836;28;20068;-73
2022/09/10 10:19:30;;;;;;;5.13;2.10;;;16.90;99.90;;;;;;5002029;28;20042;-72
2022/09/10 10:22:19;;;;;;;7.00;2.55;;;16.70;99.90;;;;;;5009081;28;20046;-69
2022/09/10 10:24:48;;;;;;;3.70;1.85;;;16.50;99.90;;;;;;5008638;28;20069;-73
2022/09/10 10:27:18;;;;;;;3.08;1.75;;;16.30;99.90;;;;;;5021949;28;20055;-72
2022/09/10 10:29:59;;;;;;;3.63;2.15;;;16.20;99.90;;;;;;5012580;28;20037;-71
2022/09/10 10:32:48;;;;;;;5.50;1.77;;;16.10;99.90;;;;;;5007615;28;20037;-71
2022/09/10 10:35:22;;;;;;;5.45;1.90;;;16.10;99.90;;;;;;5020912;28;20503;-71
2022/09/10 10:38:24;;;;;;;4.40;1.70;;;16.00;99.90;;;;;;5030729;28;20055;-71
2022/09/10 10:41:10;;;;;;;2.83;1.40;;;16.10;99.90;;;;;;5021309;28;20045;-72
2022/09/10 10:44:13;;;;;;;3.67;1.60;;;16.00;99.90;;;;;;5014475;28;20070;-71
2022/09/10 10:47:08;;;;;;;3.88;1.90;;;16.00;99.90;;;;;;5026828;28;20178;-72
2022/09/10 10:50:02;;;;;;;5.22;2.10;;;16.20;99.90;;;;;;5008187;28;20116;-73
2022/09/10 10:53:04;;;;;;;4.55;1.73;;;16.20;99.90;;;;;;5026224;28;20068;-71
2022/09/10 10:55:39;;;;;;;6.50;1.90;;;16.20;99.90;;;;;;5022740;28;20499;-72
2022/09/10 10:58:09;;;;;;;4.97;1.83;;;16.30;99.90;;;;;;5025307;28;20156;-71
2022/09/10 11:00:44;;;;;;;3.88;1.90;;;16.40;99.90;;;;;;5020365;28;20141;-72
2022/09/10 11:03:20;;;;;;;3.50;2.00;;;16.30;99.90;;;;;;5018764;28;20048;-73
2022/09/10 11:05:54;;;;;;;5.60;2.35;;;16.60;99.90;;;;;;5028800;28;20046;-75
2022/09/10 11:08:30;;;;;;;7.22;2.70;;;16.70;99.90;;;;;;5012216;28;20043;-72
2022/09/10 11:11:04;;;;;;;6.72;3.13;;;16.90;99.90;;;;;;5020451;28;20384;-73
2022/09/10 11:13:42;;;;;;;3.03;1.70;;;17.30;99.90;;;;;;5031315;28;20533;-72
2022/09/10 11:16:24;;;;;;;4.85;1.95;;;17.30;99.90;;;;;;5011498;28;20038;-73
2022/09/10 11:19:13;;;;;;;6.18;2.13;;;17.30;99.90;;;;;;5024378;28;20060;-74
2022/09/10 11:21:50;;;;;;;4.38;1.60;;;17.20;99.90;;;;;;5023050;28;20048;-70
2022/09/10 11:24:55;;;;;;;4.25;1.73;;;17.00;99.90;;;;;;5030856;28;20039;-69
2022/09/10 11:27:31;;;;;;;5.28;1.70;;;16.90;99.90;;;;;;5024776;28;20049;-73
2022/09/10 11:30:04;;;;;;;4.80;2.00;;;17.00;99.90;;;;;;5024602;28;20049;-71
2022/09/10 11:32:51;;;;;;;4.60;1.90;;;17.20;99.90;;;;;;5025116;28;20053;-73
2022/09/10 11:35:34;;;;;;;3.97;1.92;;;17.40;99.90;;;;;;5025445;28;20084;-71
2022/09/10 11:38:21;;;;;;;4.70;1.92;;;17.60;99.90;;;;;;5023453;28;20059;-72
2022/09/10 11:41:23;;;;;;;5.40;2.13;;;18.30;99.90;;;;;;5008170;28;20092;-72
2022/09/10 11:44:11;;;;;;;5.57;2.67;;;18.40;99.90;;;;;;5017593;28;20053;-74
2022/09/10 11:46:49;;;;;;;3.90;2.20;;;18.90;99.90;;;;;;5005382;28;20111;-70
2022/09/10 11:49:21;;;;;;;4.35;2.28;;;18.80;99.90;;;;;;4982636;28;20631;-72
2022/09/10 11:51:50;;;;;;;5.97;2.10;;;19.40;99.90;;;;;;4992887;28;20049;-74
2022/09/10 11:54:27;;;;;;;7.53;2.45;;;20.00;99.90;;;;;;4988716;28;20080;-74
2022/09/10 11:56:58;;;;;;;6.03;2.60;;;20.20;99.90;;;;;;5026929;28;20053;-74
2022/09/10 11:59:52;;;;;;;7.93;2.90;;;20.90;99.90;;;;;;5027034;28;21077;-72
2022/09/10 12:02:28;;;;;;;4.22;2.60;;;20.80;99.90;;;;;;5015878;28;20404;-72
2022/09/10 12:05:34;;;;;;;5.88;3.10;;;20.40;99.90;;;;;;5022939;28;20130;-72
2022/09/10 12:08:27;;;;;;;7.90;2.97;;;20.00;99.90;;;;;;5026175;28;20049;-73
2022/09/10 12:11:13;;;;;;;6.75;2.70;;;19.50;99.90;;;;;;5032676;28;20056;-74
2022/09/10 12:13:44;;;;;;;4.78;2.60;;;19.50;99.90;;;;;;5046038;28;20120;-72
2022/09/10 12:16:33;;;;;;;4.78;2.58;;;19.50;99.90;;;;;;5039851;28;20404;-71
2022/09/10 12:19:07;;;;;;;6.38;3.03;;;19.50;99.90;;;;;;5059402;28;20044;-70
2022/09/10 12:21:50;;;;;;;6.50;2.70;;;19.90;99.90;;;;;;5057833;28;20495;-73
2022/09/10 12:24:35;;;;;;;5.22;2.65;;;21.00;99.90;;;;;;5030069;28;20530;-70
2022/09/10 12:27:05;;;;;;;5.97;2.72;;;21.30;99.90;;;;;;5037713;28;20055;-71
2022/09/10 12:29:39;;;;;;;7.40;2.92;;;20.90;99.90;;;;;;5030394;28;20408;-74
2022/09/10 12:32:06;;;;;;;4.85;3.05;;;20.50;99.90;;;;;;5030462;28;20599;-72
2022/09/10 12:34:35;;;;;;;6.00;3.10;;;20.70;99.90;;;;;;5029615;28;20126;-72
2022/09/10 12:37:03;;;;;;;6.72;3.13;;;21.30;99.90;;;;;;5044018;28;20490;-71
2022/09/10 12:39:30;;;;;;;5.15;3.17;;;21.20;99.90;;;;;;5033149;28;20516;-73
2022/09/10 12:42:22;;;;;;;8.93;3.08;;;21.80;99.90;;;;;;5028961;28;20549;-72
2022/09/10 12:44:49;;;;;;;5.78;3.22;;;21.80;99.90;;;;;;5039513;28;20563;-71
2022/09/10 12:47:17;;;;;;;6.07;3.13;;;22.30;99.90;;;;;;5037687;28;20419;-73
2022/09/10 12:50:03;;;;;;;7.75;3.40;;;22.90;99.90;;;;;;5040204;28;20053;-70
2022/09/10 12:52:34;;;;;;;4.80;3.20;;;22.80;99.90;;;;;;5027855;28;20539;-73
2022/09/10 12:55:10;;;;;;;4.75;3.15;;;23.20;99.90;;;;;;5006340;28;20050;-74
2022/09/10 12:58:04;;;;;;;8.68;3.50;;;23.60;99.90;;;;;;5032406;28;20495;-71
2022/09/10 13:00:59;;;;;;;3.85;3.28;;;23.70;99.90;;;;;;5026168;28;20388;-72
2022/09/10 13:03:28;;;;;;;5.70;3.88;;;23.60;99.90;;;;;;5032250;28;20055;-71
2022/09/10 13:06:00;;;;;;;6.22;3.70;;;22.40;99.90;;;;;;5016715;28;20045;-72
2022/09/10 13:08:32;;;;;;;;;;;22.60;99.90;;;;;;5025582;28;20523;-71
2022/09/10 13:11:01;;;;;;;4.38;3.40;;;23.90;99.90;;;;;;5020323;28;19925;-72
2022/09/10 13:13:32;;;;;;;6.97;4.10;;;25.50;99.90;;;;;;5033260;28;20149;-71
2022/09/10 13:16:01;;;;;;;5.78;3.58;;;27.00;99.90;;;;;;5027333;28;20045;-72
2022/09/10 13:18:31;;;;;;;4.55;4.00;;;28.00;99.90;;;;;;5026764;28;20089;-71
2022/09/10 13:21:22;;;;;;;4.63;3.95;;;28.90;99.90;;;;;;5019904;28;20038;-73
2022/09/10 13:23:51;;;;;;;6.15;4.18;;;29.60;99.90;;;;;;5028474;28;20041;-73